createdAt,value
2019-02-09T00:00:45.031Z,1.48
2019-02-09T00:03:13.609Z,1.32
2019-02-09T00:05:42.241Z,1.26
2019-02-09T00:08:11.663Z,1.24
2019-02-09T00:10:40.496Z,1.25
2019-02-09T00:13:09.053Z,1.20
2019-02-09T00:15:37.688Z,1.22
2019-02-09T00:18:07.259Z,1.28
2019-02-09T00:20:35.875Z,1.22
2019-02-09T00:23:04.997Z,1.29
2019-02-09T00:25:33.759Z,1.30
2019-02-09T00:28:02.372Z,1.31
2019-02-09T00:30:30.991Z,1.33
2019-02-09T00:32:59.663Z,1.30
2019-02-09T00:35:28.301Z,1.37
2019-02-09T00:37:56.857Z,1.44
2019-02-09T00:40:29.946Z,1.34
2019-02-09T00:42:58.562Z,1.33
2019-02-09T00:45:27.885Z,1.30
2019-02-09T00:47:56.681Z,1.39
2019-02-09T00:50:25.614Z,1.43
2019-02-09T00:52:54.343Z,1.27
2019-02-09T00:55:27.692Z,1.27
2019-02-09T00:57:56.516Z,1.33
2019-02-09T01:00:32.848Z,1.37
2019-02-09T01:03:01.634Z,1.31
2019-02-09T01:05:41.463Z,1.18
2019-02-09T01:08:10.214Z,1.27
2019-02-09T01:10:38.836Z,1.27
2019-02-09T01:13:07.606Z,1.29
2019-02-09T01:15:36.636Z,1.39
2019-02-09T01:18:05.830Z,1.32
2019-02-09T01:20:34.558Z,1.29
2019-02-09T01:23:03.287Z,1.21
2019-02-09T01:25:31.900Z,1.30
2019-02-09T01:28:00.708Z,1.25
2019-02-09T01:30:30.131Z,1.23
2019-02-09T01:32:58.953Z,1.16
2019-02-09T01:35:27.610Z,1.10
2019-02-09T01:37:56.334Z,1.03
2019-02-09T01:40:27.196Z,1.04
2019-02-09T01:42:56.221Z,1.10
2019-02-09T01:45:29.850Z,1.09
2019-02-09T01:47:58.618Z,1.09
2019-02-09T01:50:32.007Z,1.07
2019-02-09T01:53:01.033Z,0.71
2019-02-09T01:55:29.895Z,0.90
2019-02-09T01:57:59.323Z,0.86
2019-02-09T02:00:30.360Z,0.72
2019-02-09T02:02:59.445Z,0.66
2019-02-09T02:05:28.443Z,0.66
2019-02-09T02:07:56.928Z,0.57
2019-02-09T02:10:35.904Z,0.58
2019-02-09T02:13:06.638Z,0.62
2019-02-09T02:15:35.460Z,0.62
2019-02-09T02:18:04.905Z,0.53
2019-02-09T02:20:33.962Z,0.53
2019-02-09T02:23:02.515Z,0.44
2019-02-09T02:25:31.284Z,0.44
2019-02-09T02:27:59.905Z,0.36
2019-02-09T02:30:36.860Z,0.35
2019-02-09T02:33:06.583Z,0.35
2019-02-09T02:35:35.514Z,0.34
2019-02-09T02:38:04.373Z,0.24
2019-02-09T02:40:32.989Z,0.28
2019-02-09T02:43:01.606Z,0.20
2019-02-09T02:45:30.517Z,0.12
2019-02-09T02:47:59.233Z,0.11
2019-02-09T02:50:27.963Z,0.05
2019-02-09T02:52:56.744Z,-0.04
2019-02-09T02:55:27.717Z,-0.16
2019-02-09T02:57:56.359Z,-0.23
2019-02-09T03:00:32.454Z,-0.24
2019-02-09T03:02:57.387Z,-0.35
2019-02-09T03:05:26.288Z,-0.46
2019-02-09T03:07:55.795Z,-0.51
2019-02-09T03:10:24.523Z,-0.54
2019-02-09T03:12:53.487Z,-0.56
2019-02-09T03:15:27.431Z,-0.57
2019-02-09T03:17:56.243Z,-0.62
2019-02-09T03:20:24.894Z,-0.66
2019-02-09T03:22:53.527Z,-0.74
2019-02-09T03:25:25.117Z,-0.70
2019-02-09T03:27:53.779Z,-0.73
2019-02-09T03:30:24.630Z,-0.83
2019-02-09T03:32:53.282Z,-0.88
2019-02-09T03:35:22.401Z,-0.88
2019-02-09T03:37:51.023Z,-0.88
2019-02-09T03:40:29.145Z,-0.91
2019-02-09T03:42:57.899Z,-0.97
2019-02-09T03:45:33.634Z,-0.97
2019-02-09T03:48:02.768Z,-1.02
2019-02-09T03:50:32.707Z,-1.01
2019-02-09T03:53:01.800Z,-1.01
2019-02-09T03:55:30.524Z,-1.05
2019-02-09T03:57:59.166Z,-1.09
2019-02-09T04:00:32.914Z,-1.04
2019-02-09T04:03:03.392Z,-1.06
2019-02-09T04:05:32.027Z,-1.08
2019-02-09T04:08:00.678Z,-1.02
2019-02-09T04:10:29.436Z,-1.08
2019-02-09T04:12:58.047Z,-1.08
2019-02-09T04:15:27.716Z,-0.97
2019-02-09T04:17:56.637Z,-1.06
2019-02-09T04:20:26.250Z,-1.04
2019-02-09T04:22:55.314Z,-1.07
2019-02-09T04:25:24.336Z,-1.06
2019-02-09T04:27:53.158Z,-1.13
2019-02-09T04:30:24.208Z,-1.06
2019-02-09T04:32:52.860Z,-0.95
2019-02-09T04:35:21.572Z,-0.95
2019-02-09T04:37:50.453Z,-0.98
2019-02-09T04:40:21.562Z,-0.86
2019-02-09T04:42:50.190Z,-0.84
2019-02-09T04:45:19.353Z,-0.74
2019-02-09T04:47:48.014Z,-0.71
2019-02-09T04:50:17.379Z,-0.60
2019-02-09T04:52:46.050Z,-0.60
2019-02-09T04:55:19.713Z,-0.53
2019-02-09T04:57:48.344Z,-0.43
2019-02-09T05:00:27.771Z,-0.42
2019-02-09T05:02:56.859Z,-0.39
2019-02-09T05:05:26.421Z,-0.31
2019-02-09T05:07:55.513Z,-0.25
2019-02-09T05:10:25.136Z,-0.23
2019-02-09T05:12:53.785Z,-0.15
2019-02-09T05:15:22.856Z,-0.10
2019-02-09T05:17:51.493Z,-0.09
2019-02-09T05:20:25.376Z,-0.05
2019-02-09T05:22:54.632Z,-0.08
2019-02-09T05:25:23.555Z,-0.01
2019-02-09T05:27:52.390Z,-0.03
2019-02-09T05:30:28.322Z,0.03
2019-02-09T05:32:57.259Z,0.00
2019-02-09T05:35:26.380Z,0.05
2019-02-09T05:37:55.043Z,0.01
2019-02-09T05:40:25.273Z,0.10
2019-02-09T05:42:54.000Z,0.09
2019-02-09T05:45:27.268Z,0.16
2019-02-09T05:47:55.894Z,0.24
2019-02-09T05:50:24.824Z,0.30
2019-02-09T05:52:53.647Z,0.32
2019-02-09T05:55:22.281Z,0.35
2019-02-09T05:57:50.906Z,0.38
2019-02-09T06:00:35.167Z,0.41
2019-02-09T06:03:03.896Z,0.54
2019-02-09T06:05:32.603Z,0.56
2019-02-09T06:08:01.228Z,0.67
2019-02-09T06:10:29.858Z,0.70
2019-02-09T06:12:58.508Z,0.81
2019-02-09T06:15:28.707Z,0.75
2019-02-09T06:17:57.342Z,0.81
2019-02-09T06:20:30.694Z,0.84
2019-02-09T06:22:59.718Z,0.98
2019-02-09T06:25:28.460Z,1.09
2019-02-09T06:27:57.084Z,1.17
2019-02-09T06:30:33.051Z,1.29
2019-02-09T06:33:01.923Z,1.43
2019-02-09T06:35:30.836Z,1.53
2019-02-09T06:37:59.660Z,1.62
2019-02-09T06:40:28.555Z,1.75
2019-02-09T06:42:57.274Z,1.78
2019-02-09T06:45:27.000Z,1.80
2019-02-09T06:48:15.100Z,1.95
2019-02-09T06:50:43.698Z,2.04
2019-02-09T06:53:12.324Z,2.15
2019-02-09T06:55:40.873Z,2.23
2019-02-09T06:58:09.490Z,2.24
2019-02-09T07:00:37.981Z,2.28
2019-02-09T07:03:06.627Z,2.33
2019-02-09T07:05:35.258Z,2.37
2019-02-09T07:08:04.407Z,2.41
2019-02-09T07:10:35.905Z,2.35
2019-02-09T07:13:04.953Z,2.49
2019-02-09T07:15:35.941Z,2.53
2019-02-09T07:18:05.790Z,2.65
2019-02-09T07:20:34.370Z,2.79
2019-02-09T07:23:02.992Z,2.90
2019-02-09T07:25:31.656Z,2.80
2019-02-09T07:28:00.364Z,3.03
2019-02-09T07:30:30.900Z,3.20
2019-02-09T07:33:00.337Z,3.25
2019-02-09T07:35:28.956Z,3.38
2019-02-09T07:37:57.583Z,3.58
2019-02-09T07:40:27.146Z,3.51
2019-02-09T07:42:56.074Z,3.51
2019-02-09T07:45:31.215Z,3.72
2019-02-09T07:47:59.865Z,3.75
2019-02-09T07:50:28.794Z,3.78
2019-02-09T07:52:57.714Z,3.91
2019-02-09T07:55:27.282Z,4.01
2019-02-09T07:57:55.922Z,4.32
2019-02-09T08:00:26.981Z,4.44
2019-02-09T08:02:55.950Z,4.43
2019-02-09T08:05:26.486Z,4.60
2019-02-09T08:07:55.216Z,4.73
2019-02-09T08:10:32.665Z,4.21
2019-02-09T08:13:02.684Z,4.21
2019-02-09T08:15:32.514Z,4.62
2019-02-09T08:18:01.569Z,4.83
2019-02-09T08:20:31.398Z,4.93
2019-02-09T08:23:01.909Z,4.96
2019-02-09T08:25:33.745Z,5.16
2019-02-09T08:28:02.568Z,5.20
2019-02-09T08:30:42.407Z,5.24
2019-02-09T08:33:11.128Z,5.23
2019-02-09T08:35:40.376Z,4.74
2019-02-09T08:38:09.893Z,4.44
2019-02-09T08:40:38.621Z,4.27
2019-02-09T08:43:07.258Z,4.28
2019-02-09T08:45:35.911Z,4.09
2019-02-09T08:48:05.130Z,3.84
2019-02-09T08:50:35.962Z,4.27
2019-02-09T08:53:04.630Z,4.03
2019-02-09T08:55:33.251Z,4.24
2019-02-09T08:58:01.987Z,4.43
2019-02-09T09:00:33.100Z,4.61
2019-02-09T09:03:01.660Z,4.62
2019-02-09T09:05:30.389Z,5.06
2019-02-09T09:07:59.249Z,5.15
2019-02-09T09:10:31.773Z,5.29
2019-02-09T09:13:01.101Z,5.11
2019-02-09T09:15:44.224Z,5.06
2019-02-09T09:18:12.858Z,4.91
2019-02-09T09:20:49.969Z,5.04
2019-02-09T09:23:26.044Z,4.66
2019-02-09T09:25:54.948Z,4.51
2019-02-09T09:28:23.697Z,4.56
2019-02-09T09:30:52.182Z,4.47
2019-02-09T09:33:21.004Z,4.57
2019-02-09T09:35:49.639Z,4.46
2019-02-09T09:38:18.267Z,4.88
2019-02-09T09:40:47.150Z,5.09
2019-02-09T09:43:15.780Z,5.00
2019-02-09T09:45:45.112Z,4.86
2019-02-09T09:48:19.592Z,4.71
2019-02-09T09:50:48.219Z,4.80
2019-02-09T09:53:16.853Z,4.73
2019-02-09T09:55:45.452Z,5.00
2019-02-09T09:58:14.085Z,5.26
2019-02-09T10:00:42.757Z,5.19
2019-02-09T10:03:11.413Z,5.78
2019-02-09T10:05:40.053Z,6.19
2019-02-09T10:08:09.018Z,6.09
2019-02-09T10:10:37.705Z,6.03
2019-02-09T10:13:06.730Z,5.73
2019-02-09T10:15:35.563Z,5.65
2019-02-09T10:18:04.887Z,5.60
2019-02-09T10:20:33.562Z,5.35
2019-02-09T10:23:02.239Z,5.39
2019-02-09T10:25:30.908Z,5.23
2019-02-09T10:27:59.533Z,5.06
2019-02-09T10:30:32.521Z,4.97
2019-02-09T10:33:01.283Z,5.02
2019-02-09T10:35:30.004Z,4.97
2019-02-09T10:37:58.742Z,4.70
2019-02-09T10:40:32.843Z,4.81
2019-02-09T10:43:02.244Z,4.94
2019-02-09T10:45:31.865Z,4.87
2019-02-09T10:48:02.024Z,4.98
2019-02-09T10:50:42.127Z,4.43
2019-02-09T10:53:11.146Z,4.14
2019-02-09T10:55:39.967Z,3.99
2019-02-09T10:58:08.933Z,4.10
2019-02-09T11:00:46.359Z,4.26
2019-02-09T11:03:15.288Z,4.48
2019-02-09T11:05:44.009Z,4.54
2019-02-09T11:08:12.718Z,4.69
2019-02-09T11:10:41.440Z,4.59
2019-02-09T11:13:10.057Z,4.47
2019-02-09T11:15:38.784Z,4.39
2019-02-09T11:18:07.813Z,4.51
2019-02-09T11:20:36.444Z,4.79
2019-02-09T11:23:05.864Z,5.03
2019-02-09T11:25:34.496Z,4.87
2019-02-09T11:28:03.134Z,4.64
2019-02-09T11:30:32.094Z,4.58
2019-02-09T11:33:02.528Z,4.68
2019-02-09T11:35:31.000Z,4.61
2019-02-09T11:38:00.028Z,4.63
2019-02-09T11:40:29.870Z,4.70
2019-02-09T11:42:59.390Z,4.75
2019-02-09T11:45:33.381Z,4.95
2019-02-09T11:48:02.112Z,5.01
2019-02-09T11:50:30.740Z,5.13
2019-02-09T11:52:59.637Z,5.08
2019-02-09T11:55:28.272Z,5.08
2019-02-09T11:57:56.932Z,5.07
2019-02-09T12:00:36.847Z,5.18
2019-02-09T12:03:14.642Z,5.18
2019-02-09T12:05:36.425Z,5.31
2019-02-09T12:08:06.597Z,5.29
2019-02-09T12:10:35.221Z,5.08
2019-02-09T12:13:04.155Z,4.99
2019-02-09T12:15:35.197Z,5.01
2019-02-09T12:18:04.561Z,5.02
2019-02-09T12:20:33.181Z,5.24
2019-02-09T12:23:01.856Z,5.16
2019-02-09T12:25:32.857Z,5.29
2019-02-09T12:28:01.485Z,5.22
2019-02-09T12:30:32.668Z,5.04
2019-02-09T12:33:01.848Z,5.20
2019-02-09T12:35:30.565Z,5.43
2019-02-09T12:37:59.305Z,5.59
2019-02-09T12:40:34.636Z,5.79
2019-02-09T12:43:03.268Z,5.67
2019-02-09T12:45:34.740Z,5.60
2019-02-09T12:48:03.387Z,5.58
2019-02-09T12:50:32.409Z,5.38
2019-02-09T12:53:01.076Z,5.44
2019-02-09T12:55:29.910Z,5.21
2019-02-09T12:57:58.551Z,5.20
2019-02-09T13:00:29.302Z,5.15
2019-02-09T13:03:06.669Z,5.01
2019-02-09T13:05:35.331Z,5.08
2019-02-09T13:08:04.168Z,5.03
2019-02-09T13:10:32.730Z,5.30
2019-02-09T13:13:01.264Z,5.45
2019-02-09T13:15:31.637Z,5.49
2019-02-09T13:18:00.268Z,5.57
2019-02-09T13:20:31.159Z,5.64
2019-02-09T13:23:00.409Z,5.71
2019-02-09T13:25:29.046Z,5.72
2019-02-09T13:27:57.916Z,5.53
2019-02-09T13:30:35.274Z,5.55
2019-02-09T13:33:04.024Z,5.61
2019-02-09T13:35:32.706Z,5.66
2019-02-09T13:38:02.351Z,5.77
2019-02-09T13:40:31.113Z,5.80
2019-02-09T13:43:00.256Z,5.96
2019-02-09T13:45:33.911Z,5.99
2019-02-09T13:48:02.560Z,5.90
2019-02-09T13:50:32.481Z,5.71
2019-02-09T13:53:01.105Z,5.57
2019-02-09T13:55:29.779Z,5.67
2019-02-09T13:57:58.344Z,5.61
2019-02-09T14:00:29.357Z,5.64
2019-02-09T14:05:46.204Z,5.70
2019-02-09T14:08:14.729Z,5.65
2019-02-09T14:10:43.369Z,5.59
2019-02-09T14:13:14.596Z,5.44
2019-02-09T14:15:42.346Z,5.43
2019-02-09T14:18:11.666Z,5.45
2019-02-09T14:20:40.398Z,5.58
2019-02-09T14:23:09.092Z,5.56
2019-02-09T14:25:37.845Z,5.52
2019-02-09T14:28:07.355Z,5.45
2019-02-09T14:30:38.962Z,5.59
2019-02-09T14:33:12.018Z,5.59
2019-02-09T14:35:42.448Z,5.58
2019-02-09T14:38:11.126Z,5.54
2019-02-09T14:40:39.752Z,5.45
2019-02-09T14:43:09.480Z,5.52
2019-02-09T14:45:45.810Z,5.54
2019-02-09T14:48:14.376Z,5.46
2019-02-09T14:50:43.010Z,5.43
2019-02-09T14:53:12.386Z,5.44
2019-02-09T14:55:41.018Z,5.41
2019-02-09T14:58:09.654Z,5.36
2019-02-09T15:00:46.746Z,5.29
2019-02-09T15:03:15.781Z,5.32
2019-02-09T15:05:44.817Z,5.26
2019-02-09T15:08:13.472Z,5.27
2019-02-09T15:10:42.102Z,5.20
2019-02-09T15:13:12.193Z,5.16
2019-02-09T15:15:59.406Z,5.00
2019-02-09T15:18:28.035Z,4.95
2019-02-09T15:21:02.149Z,4.96
2019-02-09T15:23:30.750Z,4.90
2019-02-09T15:25:59.385Z,4.89
2019-02-09T15:28:28.137Z,4.81
2019-02-09T15:30:56.761Z,4.77
2019-02-09T15:33:25.317Z,4.64
2019-02-09T15:35:53.940Z,4.63
2019-02-09T15:38:22.532Z,4.56
2019-02-09T15:40:51.152Z,4.46
2019-02-09T15:43:19.788Z,4.32
2019-02-09T15:45:48.548Z,4.27
2019-02-09T15:48:17.096Z,4.19
2019-02-09T15:50:45.760Z,4.06
2019-02-09T15:53:14.385Z,4.00
2019-02-09T15:55:42.952Z,3.92
2019-02-09T15:58:11.633Z,3.86
2019-02-09T16:00:40.311Z,3.76
2019-02-09T16:03:08.933Z,3.70
2019-02-09T16:05:37.486Z,3.62
2019-02-09T16:08:07.653Z,3.55
2019-02-09T16:10:37.335Z,3.45
2019-02-09T16:13:07.580Z,3.45
2019-02-09T16:15:36.199Z,3.43
2019-02-09T16:18:06.129Z,3.43
2019-02-09T16:20:35.945Z,3.33
2019-02-09T16:23:05.309Z,3.25
2019-02-09T16:25:33.944Z,3.17
2019-02-09T16:28:02.579Z,3.22
2019-02-09T16:30:31.644Z,3.14
2019-02-09T16:33:00.280Z,3.10
2019-02-09T16:35:32.767Z,3.08
2019-02-09T16:38:01.427Z,3.01
2019-02-09T16:40:34.211Z,2.94
2019-02-09T16:43:02.845Z,2.88
2019-02-09T16:45:36.046Z,2.88
2019-02-09T16:48:06.265Z,2.79
2019-02-09T16:50:34.905Z,2.78
2019-02-09T16:53:03.505Z,2.74
2019-02-09T16:55:32.134Z,2.66
2019-02-09T16:58:00.637Z,2.63
2019-02-09T17:00:32.266Z,2.67
2019-02-09T17:03:00.999Z,2.63
2019-02-09T17:05:29.838Z,2.53
2019-02-09T17:07:58.661Z,2.49
2019-02-09T17:10:27.295Z,2.41
2019-02-09T17:12:55.926Z,2.45
2019-02-09T17:15:26.851Z,2.45
2019-02-09T17:17:55.488Z,2.43
2019-02-09T17:20:24.303Z,2.49
2019-02-09T17:22:53.070Z,2.48
2019-02-09T17:25:23.960Z,2.59
2019-02-09T17:27:52.974Z,2.53
2019-02-09T17:30:29.997Z,2.59
2019-02-09T17:32:58.616Z,2.62
2019-02-09T17:35:27.242Z,2.58
2019-02-09T17:37:56.334Z,2.56
2019-02-09T17:40:33.456Z,2.52
2019-02-09T17:43:02.121Z,2.46
2019-02-09T17:45:45.506Z,2.42
2019-02-09T17:48:14.171Z,2.39
2019-02-09T17:50:42.729Z,2.35
2019-02-09T17:53:11.351Z,2.42
2019-02-09T17:55:40.024Z,2.49
2019-02-09T17:58:08.762Z,2.71
2019-02-09T18:00:41.721Z,2.77
2019-02-09T18:03:10.561Z,2.80
2019-02-09T18:05:39.182Z,2.67
2019-02-09T18:08:08.296Z,2.50
2019-02-09T18:10:37.322Z,2.55
2019-02-09T18:13:06.448Z,2.59
2019-02-09T18:15:35.085Z,2.48
2019-02-09T18:18:09.611Z,2.26
2019-02-09T18:20:38.483Z,2.24
2019-02-09T18:23:07.085Z,2.20
2019-02-09T18:25:36.002Z,2.25
2019-02-09T18:28:05.737Z,2.16
2019-02-09T18:30:34.958Z,2.19
2019-02-09T18:33:03.619Z,2.15
2019-02-09T18:35:32.177Z,2.11
2019-02-09T18:38:00.753Z,2.09
2019-02-09T18:40:29.522Z,1.93
2019-02-09T18:42:58.151Z,2.00
2019-02-09T18:45:29.242Z,2.06
2019-02-09T18:47:57.907Z,1.97
2019-02-09T18:50:31.677Z,2.01
2019-02-09T18:53:01.867Z,1.96
2019-02-09T18:55:31.415Z,1.97
2019-02-09T18:58:00.246Z,1.96
2019-02-09T19:00:31.822Z,1.99
2019-02-09T19:03:00.859Z,1.85
2019-02-09T19:05:29.476Z,1.79
2019-02-09T19:07:58.144Z,1.74
2019-02-09T19:10:28.276Z,1.68
2019-02-09T19:12:56.895Z,1.66
2019-02-09T19:15:27.830Z,1.66
2019-02-09T19:17:57.513Z,1.71
2019-02-09T19:20:31.512Z,1.74
2019-02-09T19:23:00.413Z,1.79
2019-02-09T19:25:29.531Z,1.78
2019-02-09T19:27:58.178Z,1.83
2019-02-09T19:30:27.649Z,1.83
2019-02-09T19:32:56.364Z,1.91
2019-02-09T19:35:24.983Z,1.93
2019-02-09T19:37:54.114Z,1.90
2019-02-09T19:40:28.834Z,1.91
2019-02-09T19:42:59.938Z,1.86
2019-02-09T19:45:36.912Z,1.79
2019-02-09T19:48:07.254Z,1.76
2019-02-09T19:50:35.877Z,1.74
2019-02-09T19:53:05.003Z,1.70
2019-02-09T19:55:35.259Z,1.68
2019-02-09T19:58:04.800Z,1.67
2019-02-09T20:00:42.351Z,1.61
2019-02-09T20:03:11.051Z,1.56
2019-02-09T20:05:39.677Z,1.52
2019-02-09T20:08:09.852Z,1.57
2019-02-09T20:10:43.239Z,1.55
2019-02-09T20:13:13.062Z,1.62
2019-02-09T20:15:41.720Z,1.66
2019-02-09T20:18:11.536Z,1.71
2019-02-09T20:20:46.846Z,1.76
2019-02-09T20:23:10.568Z,1.82
2019-02-09T20:25:39.175Z,1.83
2019-02-09T20:28:08.289Z,1.87
2019-02-09T20:30:38.522Z,1.82
2019-02-09T20:33:07.545Z,1.69
2019-02-09T20:35:36.278Z,1.66
2019-02-09T20:38:06.981Z,1.56
2019-02-09T20:40:53.220Z,1.51
2019-02-09T20:43:22.783Z,1.52
2019-02-09T20:45:51.325Z,1.32
2019-02-09T20:48:19.878Z,1.30
2019-02-09T20:50:48.541Z,1.29
2019-02-09T20:53:17.181Z,1.20
2019-02-09T20:55:45.915Z,1.17
2019-02-09T20:58:14.993Z,1.18
2019-02-09T21:00:43.610Z,1.03
2019-02-09T21:03:12.246Z,1.03
2019-02-09T21:05:40.919Z,1.03
2019-02-09T21:08:09.600Z,1.06
2019-02-09T21:10:45.060Z,1.07
2019-02-09T21:13:13.665Z,0.98
2019-02-09T21:15:42.289Z,0.82
2019-02-09T21:18:10.920Z,0.75
2019-02-09T21:20:39.516Z,0.71
2019-02-09T21:23:08.158Z,0.70
2019-02-09T21:25:41.920Z,0.59
2019-02-09T21:28:10.782Z,0.59
2019-02-09T21:30:39.348Z,0.57
2019-02-09T21:33:07.983Z,0.56
2019-02-09T21:35:43.472Z,0.57
2019-02-09T21:38:07.143Z,0.58
2019-02-09T21:40:35.862Z,0.62
2019-02-09T21:43:04.948Z,0.69
2019-02-09T21:45:33.617Z,0.72
2019-02-09T21:48:02.061Z,0.69
2019-02-09T21:50:35.850Z,0.63
2019-02-09T21:53:05.468Z,0.57
2019-02-09T21:55:34.028Z,0.55
2019-02-09T21:58:02.687Z,0.60
2019-02-09T22:00:36.155Z,0.55
2019-02-09T22:03:06.190Z,0.50
2019-02-09T22:05:34.867Z,0.56
2019-02-09T22:08:03.500Z,0.57
2019-02-09T22:10:33.989Z,0.59
2019-02-09T22:13:03.178Z,0.52
2019-02-09T22:15:38.351Z,0.41
2019-02-09T22:18:03.153Z,0.43
2019-02-09T22:20:31.745Z,0.46
2019-02-09T22:23:00.377Z,0.48
2019-02-09T22:25:30.099Z,0.47
2019-02-09T22:27:59.088Z,0.45
2019-02-09T22:30:32.191Z,0.46
2019-02-09T22:33:01.170Z,0.46
2019-02-09T22:35:30.542Z,0.46
2019-02-09T22:37:59.862Z,0.43
2019-02-09T22:40:40.313Z,0.35
2019-02-09T22:43:09.065Z,0.29
2019-02-09T22:45:37.766Z,0.26
2019-02-09T22:48:08.047Z,0.24
2019-02-09T22:50:39.347Z,0.22
2019-02-09T22:53:07.972Z,0.24
2019-02-09T22:55:38.108Z,0.29
2019-02-09T22:58:07.028Z,0.38
2019-02-09T23:00:54.056Z,0.37
2019-02-09T23:03:25.659Z,0.30
2019-02-09T23:06:12.662Z,0.30
2019-02-09T23:08:42.793Z,0.32
2019-02-09T23:11:11.427Z,0.17
2019-02-09T23:13:40.096Z,0.11
2019-02-09T23:16:08.643Z,0.09
2019-02-09T23:18:37.205Z,0.15
2019-02-09T23:21:05.897Z,0.06
2019-02-09T23:23:34.528Z,0.05
2019-02-09T23:26:03.018Z,0.06
2019-02-09T23:28:31.549Z,0.09
2019-02-09T23:31:00.189Z,0.13
2019-02-09T23:33:28.817Z,0.05
2019-02-09T23:35:57.363Z,-0.02
2019-02-09T23:38:25.981Z,0.01
2019-02-09T23:40:54.475Z,-0.09
2019-02-09T23:43:23.290Z,-0.13
2019-02-09T23:45:51.899Z,-0.07
2019-02-09T23:48:20.592Z,-0.01
2019-02-09T23:50:49.133Z,-0.11
2019-02-09T23:53:17.634Z,-0.19
2019-02-09T23:55:46.271Z,-0.24
2019-02-09T23:58:14.937Z,-0.30
